sensor_id;sensor_type;location;lat;lon;timestamp;pressure;altitude;pressure_sealevel;temperature;humidity
72677;BME280;60755;51.374;10.662;2024-03-29T00:01:06;95436.00;;;5.64;84.99
72677;BME280;60755;51.374;10.662;2024-03-29T00:03:32;95450.00;;;5.57;85.89
72677;BME280;60755;51.374;10.662;2024-03-29T00:05:58;95426.56;;;5.57;85.15
72677;BME280;60755;51.374;10.662;2024-03-29T00:08:24;95447.34;;;5.52;85.65
72677;BME280;60755;51.374;10.662;2024-03-29T00:10:52;95443.34;;;5.45;85.59
72677;BME280;60755;51.374;10.662;2024-03-29T00:13:18;95449.25;;;5.35;86.56
72677;BME280;60755;51.374;10.662;2024-03-29T00:15:45;95449.50;;;5.33;85.92
72677;BME280;60755;51.374;10.662;2024-03-29T00:18:11;95443.47;;;5.28;85.73
72677;BME280;60755;51.374;10.662;2024-03-29T00:20:37;95440.50;;;5.19;86.70
72677;BME280;60755;51.374;10.662;2024-03-29T00:23:03;95443.38;;;5.18;86.33
72677;BME280;60755;51.374;10.662;2024-03-29T00:25:29;95447.84;;;5.22;86.17
72677;BME280;60755;51.374;10.662;2024-03-29T00:27:57;95437.13;;;5.19;85.46
72677;BME280;60755;51.374;10.662;2024-03-29T00:30:23;95436.69;;;5.27;85.49
72677;BME280;60755;51.374;10.662;2024-03-29T00:32:49;95424.63;;;5.21;85.43
72677;BME280;60755;51.374;10.662;2024-03-29T00:35:15;95424.88;;;5.19;85.30
72677;BME280;60755;51.374;10.662;2024-03-29T00:37:41;95430.75;;;5.31;85.29
72677;BME280;60755;51.374;10.662;2024-03-29T00:40:08;95421.06;;;5.27;85.40
72677;BME280;60755;51.374;10.662;2024-03-29T00:42:34;95426.94;;;5.44;84.41
72677;BME280;60755;51.374;10.662;2024-03-29T00:45:01;95424.78;;;5.36;84.47
72677;BME280;60755;51.374;10.662;2024-03-29T00:47:27;95425.97;;;5.23;84.33
72677;BME280;60755;51.374;10.662;2024-03-29T00:49:53;95431.91;;;5.19;85.38
72677;BME280;60755;51.374;10.662;2024-03-29T00:52:19;95436.28;;;5.13;86.16
72677;BME280;60755;51.374;10.662;2024-03-29T00:54:45;95435.44;;;5.08;85.45
72677;BME280;60755;51.374;10.662;2024-03-29T00:57:11;95436.16;;;5.03;85.77
72677;BME280;60755;51.374;10.662;2024-03-29T00:59:37;95439.47;;;4.93;86.48
72677;BME280;60755;51.374;10.662;2024-03-29T01:02:05;95433.09;;;4.84;86.32
72677;BME280;60755;51.374;10.662;2024-03-29T01:04:31;95439.00;;;4.74;87.87
72677;BME280;60755;51.374;10.662;2024-03-29T01:06:57;95444.19;;;4.74;86.99
72677;BME280;60755;51.374;10.662;2024-03-29T01:09:23;95439.00;;;4.74;87.42
72677;BME280;60755;51.374;10.662;2024-03-29T01:11:50;95437.47;;;4.78;87.62
72677;BME280;60755;51.374;10.662;2024-03-29T01:14:16;95437.72;;;4.77;87.80
72677;BME280;60755;51.374;10.662;2024-03-29T01:16:42;95436.56;;;4.90;87.08
72677;BME280;60755;51.374;10.662;2024-03-29T01:19:10;95428.97;;;4.88;87.08
72677;BME280;60755;51.374;10.662;2024-03-29T01:21:36;95427.41;;;4.87;86.98
72677;BME280;60755;51.374;10.662;2024-03-29T01:24:02;95422.81;;;4.94;87.28
72677;BME280;60755;51.374;10.662;2024-03-29T01:26:28;95418.56;;;4.88;86.45
72677;BME280;60755;51.374;10.662;2024-03-29T01:28:54;95416.72;;;4.84;86.39
72677;BME280;60755;51.374;10.662;2024-03-29T01:31:21;95406.56;;;4.82;86.93
72677;BME280;60755;51.374;10.662;2024-03-29T01:33:47;95404.00;;;4.87;87.23
72677;BME280;60755;51.374;10.662;2024-03-29T01:36:15;95409.09;;;4.77;87.42
72677;BME280;60755;51.374;10.662;2024-03-29T01:38:41;95412.75;;;4.81;86.89
72677;BME280;60755;51.374;10.662;2024-03-29T01:41:07;95407.88;;;4.85;87.07
72677;BME280;60755;51.374;10.662;2024-03-29T01:43:33;95402.47;;;4.91;86.33
72677;BME280;60755;51.374;10.662;2024-03-29T01:46:00;95424.94;;;4.97;86.78
72677;BME280;60755;51.374;10.662;2024-03-29T01:48:28;95424.88;;;4.92;86.33
72677;BME280;60755;51.374;10.662;2024-03-29T01:50:56;95438.31;;;4.84;86.61
72677;BME280;60755;51.374;10.662;2024-03-29T01:53:26;95455.44;;;4.80;86.40
72677;BME280;60755;51.374;10.662;2024-03-29T01:55:54;95459.03;;;4.74;86.40
72677;BME280;60755;51.374;10.662;2024-03-29T01:58:21;95456.59;;;4.89;86.11
72677;BME280;60755;51.374;10.662;2024-03-29T02:00:52;95457.31;;;5.07;85.25
72677;BME280;60755;51.374;10.662;2024-03-29T02:03:19;95449.06;;;5.15;85.06
72677;BME280;60755;51.374;10.662;2024-03-29T02:05:47;95444.66;;;5.15;84.78
72677;BME280;60755;51.374;10.662;2024-03-29T02:08:14;95451.59;;;5.10;85.36
72677;BME280;60755;51.374;10.662;2024-03-29T02:10:43;95457.84;;;5.09;84.99
72677;BME280;60755;51.374;10.662;2024-03-29T02:13:12;95456.03;;;5.09;84.99
72677;BME280;60755;51.374;10.662;2024-03-29T02:15:39;95442.94;;;5.04;84.46
72677;BME280;60755;51.374;10.662;2024-03-29T02:18:07;95454.75;;;5.12;84.22
72677;BME280;60755;51.374;10.662;2024-03-29T02:20:34;95448.44;;;5.29;83.66
72677;BME280;60755;51.374;10.662;2024-03-29T02:23:06;95442.34;;;5.46;82.63
72677;BME280;60755;51.374;10.662;2024-03-29T02:25:35;95453.72;;;5.67;82.32
72677;BME280;60755;51.374;10.662;2024-03-29T02:28:02;95461.59;;;5.72;82.54
72677;BME280;60755;51.374;10.662;2024-03-29T02:30:29;95462.19;;;5.84;81.38
72677;BME280;60755;51.374;10.662;2024-03-29T02:32:57;95460.25;;;5.96;80.53
72677;BME280;60755;51.374;10.662;2024-03-29T02:35:24;95467.03;;;5.97;80.50
72677;BME280;60755;51.374;10.662;2024-03-29T02:37:52;95466.75;;;5.94;80.41
72677;BME280;60755;51.374;10.662;2024-03-29T02:40:19;95457.13;;;5.94;80.53
72677;BME280;60755;51.374;10.662;2024-03-29T02:42:47;95447.06;;;5.81;80.56
72677;BME280;60755;51.374;10.662;2024-03-29T02:45:15;95444.84;;;5.63;81.80
72677;BME280;60755;51.374;10.662;2024-03-29T02:47:42;95440.63;;;5.56;82.99
72677;BME280;60755;51.374;10.662;2024-03-29T02:50:10;95436.09;;;5.47;82.99
72677;BME280;60755;51.374;10.662;2024-03-29T02:52:37;95425.81;;;5.35;83.36
72677;BME280;60755;51.374;10.662;2024-03-29T02:55:03;95423.31;;;5.45;83.29
72677;BME280;60755;51.374;10.662;2024-03-29T02:57:30;95420.25;;;5.53;83.83
72677;BME280;60755;51.374;10.662;2024-03-29T02:59:58;95409.03;;;5.53;82.88
72677;BME280;60755;51.374;10.662;2024-03-29T03:02:25;95422.44;;;5.61;82.45
72677;BME280;60755;51.374;10.662;2024-03-29T03:04:51;95428.81;;;5.81;81.79
72677;BME280;60755;51.374;10.662;2024-03-29T03:07:18;95438.22;;;5.82;81.48
72677;BME280;60755;51.374;10.662;2024-03-29T03:10:01;95435.16;;;5.90;81.31
72677;BME280;60755;51.374;10.662;2024-03-29T03:12:46;95431.59;;;5.96;80.77
72677;BME280;60755;51.374;10.662;2024-03-29T03:15:14;95437.06;;;6.00;80.44
72677;BME280;60755;51.374;10.662;2024-03-29T03:17:41;95427.75;;;6.09;80.55
72677;BME280;60755;51.374;10.662;2024-03-29T03:20:08;95415.50;;;6.09;80.14
72677;BME280;60755;51.374;10.662;2024-03-29T03:22:35;95413.44;;;6.16;79.79
72677;BME280;60755;51.374;10.662;2024-03-29T03:25:02;95415.41;;;5.94;80.63
72677;BME280;60755;51.374;10.662;2024-03-29T03:27:28;95423.47;;;5.93;80.44
72677;BME280;60755;51.374;10.662;2024-03-29T03:29:55;95422.97;;;5.96;81.38
72677;BME280;60755;51.374;10.662;2024-03-29T03:32:22;95421.50;;;6.10;80.72
72677;BME280;60755;51.374;10.662;2024-03-29T03:34:49;95415.53;;;6.14;80.53
72677;BME280;60755;51.374;10.662;2024-03-29T03:37:15;95407.53;;;6.26;79.72
72677;BME280;60755;51.374;10.662;2024-03-29T03:39:42;95397.88;;;6.32;79.90
72677;BME280;60755;51.374;10.662;2024-03-29T03:42:08;95420.94;;;6.45;79.43
72677;BME280;60755;51.374;10.662;2024-03-29T03:44:35;95416.53;;;6.56;79.67
72677;BME280;60755;51.374;10.662;2024-03-29T03:47:01;95416.44;;;6.35;79.76
72677;BME280;60755;51.374;10.662;2024-03-29T03:49:29;95419.22;;;6.71;78.17
72677;BME280;60755;51.374;10.662;2024-03-29T03:51:56;95393.59;;;6.58;78.44
72677;BME280;60755;51.374;10.662;2024-03-29T03:54:23;95377.75;;;6.80;78.14
72677;BME280;60755;51.374;10.662;2024-03-29T03:56:50;95377.22;;;6.78;78.62
72677;BME280;60755;51.374;10.662;2024-03-29T03:59:16;95380.13;;;6.86;77.40
72677;BME280;60755;51.374;10.662;2024-03-29T04:01:43;95356.91;;;6.90;77.20
72677;BME280;60755;51.374;10.662;2024-03-29T04:04:09;95368.09;;;6.80;78.08
72677;BME280;60755;51.374;10.662;2024-03-29T04:06:37;95362.09;;;6.85;78.12
72677;BME280;60755;51.374;10.662;2024-03-29T04:09:03;95376.47;;;6.87;77.44
72677;BME280;60755;51.374;10.662;2024-03-29T04:11:30;95386.13;;;6.87;77.56
72677;BME280;60755;51.374;10.662;2024-03-29T04:13:58;95392.41;;;6.91;77.87
72677;BME280;60755;51.374;10.662;2024-03-29T04:16:25;95395.53;;;6.88;77.32
72677;BME280;60755;51.374;10.662;2024-03-29T04:18:51;95412.75;;;6.89;77.64
72677;BME280;60755;51.374;10.662;2024-03-29T04:21:18;95404.13;;;6.83;79.13
72677;BME280;60755;51.374;10.662;2024-03-29T04:23:47;95405.91;;;6.72;78.46
72677;BME280;60755;51.374;10.662;2024-03-29T04:26:14;95411.19;;;6.83;78.16
72677;BME280;60755;51.374;10.662;2024-03-29T04:28:40;95412.75;;;6.89;77.97
72677;BME280;60755;51.374;10.662;2024-03-29T04:31:07;95407.56;;;6.94;78.22
72677;BME280;60755;51.374;10.662;2024-03-29T04:33:33;95416.44;;;6.93;78.43
72677;BME280;60755;51.374;10.662;2024-03-29T04:36:02;95413.31;;;6.91;77.92
72677;BME280;60755;51.374;10.662;2024-03-29T04:38:29;95421.69;;;6.98;77.99
72677;BME280;60755;51.374;10.662;2024-03-29T04:40:58;95425.56;;;6.90;77.79
72677;BME280;60755;51.374;10.662;2024-03-29T04:43:27;95431.31;;;6.92;77.51
72677;BME280;60755;51.374;10.662;2024-03-29T04:46:02;95426.59;;;6.89;78.67
72677;BME280;60755;51.374;10.662;2024-03-29T04:48:31;95428.97;;;6.91;78.72
72677;BME280;60755;51.374;10.662;2024-03-29T04:50:58;95432.56;;;6.80;79.01
72677;BME280;60755;51.374;10.662;2024-03-29T04:53:25;95438.84;;;6.89;77.09
72677;BME280;60755;51.374;10.662;2024-03-29T04:55:57;95451.88;;;6.79;78.93
72677;BME280;60755;51.374;10.662;2024-03-29T04:58:24;95456.06;;;6.75;78.93
72677;BME280;60755;51.374;10.662;2024-03-29T05:00:52;95463.88;;;6.75;78.14
72677;BME280;60755;51.374;10.662;2024-03-29T05:03:20;95464.97;;;6.84;78.85
72677;BME280;60755;51.374;10.662;2024-03-29T05:05:49;95468.06;;;6.81;77.84
72677;BME280;60755;51.374;10.662;2024-03-29T05:08:17;95465.19;;;6.77;77.62
72677;BME280;60755;51.374;10.662;2024-03-29T05:10:45;95464.44;;;6.87;78.72
72677;BME280;60755;51.374;10.662;2024-03-29T05:13:13;95459.25;;;6.97;76.87
72677;BME280;60755;51.374;10.662;2024-03-29T05:15:40;95455.06;;;6.91;78.27
72677;BME280;60755;51.374;10.662;2024-03-29T05:18:08;95448.53;;;6.93;78.42
72677;BME280;60755;51.374;10.662;2024-03-29T05:20:35;95451.66;;;6.85;77.58
72677;BME280;60755;51.374;10.662;2024-03-29T05:23:02;95446.72;;;6.94;78.36
72677;BME280;60755;51.374;10.662;2024-03-29T05:25:29;95451.56;;;6.70;78.32
72677;BME280;60755;51.374;10.662;2024-03-29T05:27:56;95452.69;;;6.89;77.11
72677;BME280;60755;51.374;10.662;2024-03-29T05:30:24;95462.13;;;6.95;78.43
72677;BME280;60755;51.374;10.662;2024-03-29T05:32:52;95466.59;;;7.05;77.09
72677;BME280;60755;51.374;10.662;2024-03-29T05:35:19;95465.78;;;6.94;77.33
72677;BME280;60755;51.374;10.662;2024-03-29T05:37:46;95461.13;;;7.07;77.58
72677;BME280;60755;51.374;10.662;2024-03-29T05:40:16;95461.28;;;6.80;77.40
72677;BME280;60755;51.374;10.662;2024-03-29T05:42:43;95472.38;;;7.07;77.07
72677;BME280;60755;51.374;10.662;2024-03-29T05:45:24;95479.19;;;7.18;76.73
72677;BME280;60755;51.374;10.662;2024-03-29T05:47:53;95473.47;;;7.26;75.97
72677;BME280;60755;51.374;10.662;2024-03-29T05:50:20;95482.31;;;7.15;76.80
72677;BME280;60755;51.374;10.662;2024-03-29T05:52:47;95483.41;;;7.24;76.34
72677;BME280;60755;51.374;10.662;2024-03-29T05:55:14;95475.56;;;7.24;77.14
72677;BME280;60755;51.374;10.662;2024-03-29T05:57:41;95470.38;;;7.40;77.19
72677;BME280;60755;51.374;10.662;2024-03-29T06:00:11;95465.91;;;7.35;76.33
72677;BME280;60755;51.374;10.662;2024-03-29T06:02:41;95468.53;;;7.45;75.91
72677;BME280;60755;51.374;10.662;2024-03-29T06:05:08;95467.22;;;7.33;77.87
72677;BME280;60755;51.374;10.662;2024-03-29T06:07:35;95465.13;;;7.35;79.01
72677;BME280;60755;51.374;10.662;2024-03-29T06:10:02;95453.63;;;7.46;78.77
72677;BME280;60755;51.374;10.662;2024-03-29T06:12:31;95445.84;;;7.56;78.78
72677;BME280;60755;51.374;10.662;2024-03-29T06:14:58;95437.22;;;7.76;78.27
72677;BME280;60755;51.374;10.662;2024-03-29T06:17:44;95442.72;;;7.90;76.31
72677;BME280;60755;51.374;10.662;2024-03-29T06:20:12;95447.69;;;7.96;77.06
72677;BME280;60755;51.374;10.662;2024-03-29T06:22:39;95452.13;;;7.85;77.28
72677;BME280;60755;51.374;10.662;2024-03-29T06:25:07;95452.13;;;8.01;77.30
72677;BME280;60755;51.374;10.662;2024-03-29T06:27:36;95453.44;;;7.98;77.29
72677;BME280;60755;51.374;10.662;2024-03-29T06:30:05;95445.84;;;7.71;77.84
72677;BME280;60755;51.374;10.662;2024-03-29T06:32:33;95453.44;;;7.98;78.43
72677;BME280;60755;51.374;10.662;2024-03-29T06:35:02;95438.00;;;7.81;78.22
72677;BME280;60755;51.374;10.662;2024-03-29T06:37:29;95435.13;;;7.88;77.66
72677;BME280;60755;51.374;10.662;2024-03-29T06:39:56;95427.81;;;8.05;77.24
72677;BME280;60755;51.374;10.662;2024-03-29T06:42:23;95416.53;;;8.10;77.44
72677;BME280;60755;51.374;10.662;2024-03-29T06:44:50;95416.53;;;8.15;78.90
72677;BME280;60755;51.374;10.662;2024-03-29T06:47:17;95417.28;;;8.26;77.95
72677;BME280;60755;51.374;10.662;2024-03-29T06:49:45;95410.53;;;8.35;77.37
72677;BME280;60755;51.374;10.662;2024-03-29T06:52:14;95416.00;;;8.38;79.25
72677;BME280;60755;51.374;10.662;2024-03-29T06:54:41;95414.91;;;8.55;77.84
72677;BME280;60755;51.374;10.662;2024-03-29T06:57:08;95421.44;;;8.57;78.44
72677;BME280;60755;51.374;10.662;2024-03-29T06:59:37;95417.53;;;8.60;79.69
72677;BME280;60755;51.374;10.662;2024-03-29T07:02:05;95416.97;;;8.63;80.23
72677;BME280;60755;51.374;10.662;2024-03-29T07:04:32;95427.41;;;8.73;79.59
72677;BME280;60755;51.374;10.662;2024-03-29T07:06:59;95429.28;;;8.62;80.64
72677;BME280;60755;51.374;10.662;2024-03-29T07:09:27;95426.91;;;8.71;81.51
72677;BME280;60755;51.374;10.662;2024-03-29T07:11:54;95434.19;;;8.84;80.81
72677;BME280;60755;51.374;10.662;2024-03-29T07:14:21;95446.50;;;8.84;80.55
72677;BME280;60755;51.374;10.662;2024-03-29T07:16:49;95445.78;;;8.68;83.04
72677;BME280;60755;51.374;10.662;2024-03-29T07:19:16;95456.03;;;8.44;83.40
72677;BME280;60755;51.374;10.662;2024-03-29T07:21:44;95462.53;;;8.67;81.18
72677;BME280;60755;51.374;10.662;2024-03-29T07:24:11;95469.84;;;8.65;81.76
72677;BME280;60755;51.374;10.662;2024-03-29T07:26:40;95482.44;;;8.58;81.55
72677;BME280;60755;51.374;10.662;2024-03-29T07:29:07;95482.19;;;8.54;83.38
72677;BME280;60755;51.374;10.662;2024-03-29T07:31:34;95474.63;;;8.43;83.88
72677;BME280;60755;51.374;10.662;2024-03-29T07:34:01;95480.38;;;8.39;84.20
72677;BME280;60755;51.374;10.662;2024-03-29T07:36:29;95465.44;;;8.55;83.52
72677;BME280;60755;51.374;10.662;2024-03-29T07:39:01;95458.63;;;8.49;86.42
72677;BME280;60755;51.374;10.662;2024-03-29T07:41:30;95464.13;;;8.32;87.69
72677;BME280;60755;51.374;10.662;2024-03-29T07:43:58;95468.31;;;8.54;87.74
72677;BME280;60755;51.374;10.662;2024-03-29T07:46:28;95474.09;;;8.40;88.01
72677;BME280;60755;51.374;10.662;2024-03-29T07:48:56;95471.22;;;8.52;88.16
72677;BME280;60755;51.374;10.662;2024-03-29T07:51:23;95486.91;;;8.67;87.30
72677;BME280;60755;51.374;10.662;2024-03-29T07:53:50;95482.97;;;8.60;86.79
72677;BME280;60755;51.374;10.662;2024-03-29T07:56:18;95470.94;;;8.54;88.36
72677;BME280;60755;51.374;10.662;2024-03-29T07:58:50;95464.41;;;8.51;88.41
72677;BME280;60755;51.374;10.662;2024-03-29T08:01:22;95464.09;;;8.58;89.68
72677;BME280;60755;51.374;10.662;2024-03-29T08:03:50;95472.53;;;8.39;89.56
72677;BME280;60755;51.374;10.662;2024-03-29T08:06:19;95477.72;;;8.70;91.13
72677;BME280;60755;51.374;10.662;2024-03-29T08:08:46;95480.34;;;8.50;91.24
72677;BME280;60755;51.374;10.662;2024-03-29T08:11:13;95474.59;;;8.68;91.58
72677;BME280;60755;51.374;10.662;2024-03-29T08:13:40;95478.25;;;8.67;89.93
72677;BME280;60755;51.374;10.662;2024-03-29T08:16:07;95470.94;;;8.54;90.83
72677;BME280;60755;51.374;10.662;2024-03-29T08:18:36;95471.19;;;8.57;91.09
72677;BME280;60755;51.374;10.662;2024-03-29T08:21:03;95467.78;;;8.62;90.58
72677;BME280;60755;51.374;10.662;2024-03-29T08:23:38;95465.63;;;8.84;92.42
72677;BME280;60755;51.374;10.662;2024-03-29T08:26:05;95475.09;;;8.75;91.31
72677;BME280;60755;51.374;10.662;2024-03-29T08:28:32;95467.41;;;8.99;90.14
72677;BME280;60755;51.374;10.662;2024-03-29T08:31:00;95475.56;;;8.87;91.59
72677;BME280;60755;51.374;10.662;2024-03-29T08:33:27;95484.44;;;8.96;90.93
72677;BME280;60755;51.374;10.662;2024-03-29T08:35:57;95481.53;;;9.08;90.17
72677;BME280;60755;51.374;10.662;2024-03-29T08:38:23;95473.03;;;9.27;90.58
72677;BME280;60755;51.374;10.662;2024-03-29T08:40:50;95470.66;;;9.30;90.83
72677;BME280;60755;51.374;10.662;2024-03-29T08:43:17;95474.78;;;9.46;89.95
72677;BME280;60755;51.374;10.662;2024-03-29T08:45:44;95468.03;;;9.35;91.10
72677;BME280;60755;51.374;10.662;2024-03-29T08:48:11;95466.25;;;9.70;88.81
72677;BME280;60755;51.374;10.662;2024-03-29T08:50:39;95458.72;;;9.58;89.65
72677;BME280;60755;51.374;10.662;2024-03-29T08:53:07;95463.94;;;9.63;89.96
72677;BME280;60755;51.374;10.662;2024-03-29T08:55:34;95450.41;;;9.85;89.94
72677;BME280;60755;51.374;10.662;2024-03-29T08:58:02;95445.47;;;10.13;88.46
72677;BME280;60755;51.374;10.662;2024-03-29T09:00:30;95442.81;;;10.47;87.16
72677;BME280;60755;51.374;10.662;2024-03-29T09:02:57;95456.00;;;10.65;85.65
72677;BME280;60755;51.374;10.662;2024-03-29T09:05:25;95448.75;;;10.57;86.50
72677;BME280;60755;51.374;10.662;2024-03-29T09:07:54;95451.81;;;10.88;84.15
72677;BME280;60755;51.374;10.662;2024-03-29T09:10:23;95451.66;;;11.04;83.24
72677;BME280;60755;51.374;10.662;2024-03-29T09:12:50;95444.00;;;10.83;84.67
72677;BME280;60755;51.374;10.662;2024-03-29T09:15:17;95443.59;;;11.38;83.35
72677;BME280;60755;51.374;10.662;2024-03-29T09:17:44;95443.38;;;11.34;84.29
72677;BME280;60755;51.374;10.662;2024-03-29T09:20:12;95445.59;;;11.65;83.86
72677;BME280;60755;51.374;10.662;2024-03-29T09:22:39;95441.06;;;11.89;81.59
72677;BME280;60755;51.374;10.662;2024-03-29T09:25:06;95428.25;;;11.83;81.75
72677;BME280;60755;51.374;10.662;2024-03-29T09:27:36;95431.94;;;11.44;82.53
72677;BME280;60755;51.374;10.662;2024-03-29T09:30:06;95429.44;;;11.34;83.64
72677;BME280;60755;51.374;10.662;2024-03-29T09:32:35;95427.94;;;11.28;85.74
72677;BME280;60755;51.374;10.662;2024-03-29T09:35:02;95435.19;;;11.17;86.82
72677;BME280;60755;51.374;10.662;2024-03-29T09:37:29;95434.41;;;11.54;84.63
72677;BME280;60755;51.374;10.662;2024-03-29T09:40:02;95434.84;;;11.61;84.90
72677;BME280;60755;51.374;10.662;2024-03-29T09:42:32;95437.50;;;11.80;84.07
72677;BME280;60755;51.374;10.662;2024-03-29T09:45:02;95448.94;;;12.22;82.23
72677;BME280;60755;51.374;10.662;2024-03-29T09:47:31;95449.19;;;12.39;80.93
72677;BME280;60755;51.374;10.662;2024-03-29T09:50:00;95448.44;;;12.66;80.90
72677;BME280;60755;51.374;10.662;2024-03-29T09:52:31;95444.81;;;12.62;79.94
72677;BME280;60755;51.374;10.662;2024-03-29T09:55:00;95444.53;;;12.64;82.02
72677;BME280;60755;51.374;10.662;2024-03-29T09:57:27;95451.00;;;13.26;80.27
72677;BME280;60755;51.374;10.662;2024-03-29T09:59:56;95454.78;;;13.48;77.93
72677;BME280;60755;51.374;10.662;2024-03-29T10:02:28;95452.44;;;13.19;78.42
72677;BME280;60755;51.374;10.662;2024-03-29T10:04:58;95453.44;;;13.09;79.64
72677;BME280;60755;51.374;10.662;2024-03-29T10:07:29;95464.44;;;13.52;78.97
72677;BME280;60755;51.374;10.662;2024-03-29T10:09:58;95468.56;;;14.03;76.53
72677;BME280;60755;51.374;10.662;2024-03-29T10:12:27;95464.88;;;13.68;78.19
72677;BME280;60755;51.374;10.662;2024-03-29T10:14:56;95471.13;;;13.94;76.87
72677;BME280;60755;51.374;10.662;2024-03-29T10:17:32;95467.53;;;13.54;78.82
72677;BME280;60755;51.374;10.662;2024-03-29T10:20:00;95470.25;;;13.63;77.41
72677;BME280;60755;51.374;10.662;2024-03-29T10:22:29;95473.56;;;13.68;78.14
72677;BME280;60755;51.374;10.662;2024-03-29T10:24:57;95464.81;;;13.46;78.85
72677;BME280;60755;51.374;10.662;2024-03-29T10:27:24;95463.03;;;13.55;79.37
72677;BME280;60755;51.374;10.662;2024-03-29T10:29:53;95472.84;;;13.13;81.62
72677;BME280;60755;51.374;10.662;2024-03-29T10:32:20;95480.81;;;13.63;81.15
72677;BME280;60755;51.374;10.662;2024-03-29T10:34:49;95478.94;;;13.63;80.39
72677;BME280;60755;51.374;10.662;2024-03-29T10:37:17;95485.63;;;13.61;77.41
72677;BME280;60755;51.374;10.662;2024-03-29T10:39:51;95478.94;;;13.27;78.87
72677;BME280;60755;51.374;10.662;2024-03-29T10:42:19;95494.50;;;12.82;81.81
72677;BME280;60755;51.374;10.662;2024-03-29T10:44:49;95480.75;;;13.13;80.70
72677;BME280;60755;51.374;10.662;2024-03-29T10:47:18;95483.03;;;12.92;80.21
72677;BME280;60755;51.374;10.662;2024-03-29T10:49:50;95488.47;;;12.96;80.57
72677;BME280;60755;51.374;10.662;2024-03-29T10:52:18;95491.69;;;12.79;81.18
72677;BME280;60755;51.374;10.662;2024-03-29T10:54:46;95489.56;;;13.08;82.73
72677;BME280;60755;51.374;10.662;2024-03-29T10:57:22;95482.19;;;13.60;79.78
72677;BME280;60755;51.374;10.662;2024-03-29T10:59:57;95475.19;;;13.56;80.90
72677;BME280;60755;51.374;10.662;2024-03-29T11:02:33;95478.28;;;13.71;79.62
72677;BME280;60755;51.374;10.662;2024-03-29T11:05:06;95475.19;;;13.78;79.07
72677;BME280;60755;51.374;10.662;2024-03-29T11:07:40;95473.34;;;13.42;77.36
72677;BME280;60755;51.374;10.662;2024-03-29T11:10:13;95462.69;;;13.48;78.24
72677;BME280;60755;51.374;10.662;2024-03-29T11:12:50;95462.69;;;13.48;77.15
72677;BME280;60755;51.374;10.662;2024-03-29T11:15:25;95473.94;;;13.39;77.51
72677;BME280;60755;51.374;10.662;2024-03-29T11:17:55;95466.78;;;12.99;77.00
72677;BME280;60755;51.374;10.662;2024-03-29T11:20:26;95476.09;;;13.10;76.31
72677;BME280;60755;51.374;10.662;2024-03-29T11:23:03;95487.41;;;12.97;78.58
72677;BME280;60755;51.374;10.662;2024-03-29T11:25:39;95500.03;;;13.00;79.15
72677;BME280;60755;51.374;10.662;2024-03-29T11:28:07;95511.44;;;12.95;78.62
72677;BME280;60755;51.374;10.662;2024-03-29T11:30:42;95495.06;;;12.52;77.76
72677;BME280;60755;51.374;10.662;2024-03-29T11:33:30;95482.94;;;12.51;75.89
72677;BME280;60755;51.374;10.662;2024-03-29T11:36:00;95476.13;;;12.17;74.68
72677;BME280;60755;51.374;10.662;2024-03-29T11:38:31;95478.81;;;12.31;74.15
72677;BME280;60755;51.374;10.662;2024-03-29T11:41:03;95457.16;;;12.20;74.03
72677;BME280;60755;51.374;10.662;2024-03-29T11:43:31;95461.41;;;12.16;76.16
72677;BME280;60755;51.374;10.662;2024-03-29T11:45:59;95462.53;;;12.43;74.24
72677;BME280;60755;51.374;10.662;2024-03-29T11:48:29;95461.19;;;12.45;73.74
72677;BME280;60755;51.374;10.662;2024-03-29T11:50:58;95454.59;;;12.75;72.22
72677;BME280;60755;51.374;10.662;2024-03-29T11:53:26;95456.22;;;12.57;73.58
72677;BME280;60755;51.374;10.662;2024-03-29T11:55:57;95456.25;;;12.71;73.79
72677;BME280;60755;51.374;10.662;2024-03-29T11:58:25;95456.84;;;12.68;73.93
72677;BME280;60755;51.374;10.662;2024-03-29T12:00:54;95459.75;;;12.67;72.65
72677;BME280;60755;51.374;10.662;2024-03-29T12:03:23;95443.16;;;12.80;72.87
72677;BME280;60755;51.374;10.662;2024-03-29T12:05:52;95451.53;;;12.41;73.90
72677;BME280;60755;51.374;10.662;2024-03-29T12:08:23;95454.63;;;12.43;74.21
72677;BME280;60755;51.374;10.662;2024-03-29T12:10:50;95450.91;;;12.30;74.95
72677;BME280;60755;51.374;10.662;2024-03-29T12:13:18;95444.31;;;12.46;74.30
72677;BME280;60755;51.374;10.662;2024-03-29T12:15:45;95453.09;;;12.55;74.48
72677;BME280;60755;51.374;10.662;2024-03-29T12:18:13;95450.56;;;12.64;74.53
72677;BME280;60755;51.374;10.662;2024-03-29T12:20:42;95456.59;;;12.37;74.72
72677;BME280;60755;51.374;10.662;2024-03-29T12:23:12;95462.84;;;12.41;74.47
72677;BME280;60755;51.374;10.662;2024-03-29T12:25:40;95481.50;;;12.45;74.80
72677;BME280;60755;51.374;10.662;2024-03-29T12:28:09;95461.91;;;12.65;73.03
72677;BME280;60755;51.374;10.662;2024-03-29T12:30:37;95463.00;;;12.77;73.80
72677;BME280;60755;51.374;10.662;2024-03-29T12:33:06;95463.88;;;12.26;75.70
72677;BME280;60755;51.374;10.662;2024-03-29T12:35:35;95461.13;;;12.78;74.56
72677;BME280;60755;51.374;10.662;2024-03-29T12:38:03;95466.38;;;12.64;74.82
72677;BME280;60755;51.374;10.662;2024-03-29T12:40:33;95465.81;;;13.50;73.39
72677;BME280;60755;51.374;10.662;2024-03-29T12:43:06;95462.44;;;13.71;72.30
72677;BME280;60755;51.374;10.662;2024-03-29T12:45:35;95470.75;;;13.87;72.81
72677;BME280;60755;51.374;10.662;2024-03-29T12:48:03;95470.44;;;13.80;72.83
72677;BME280;60755;51.374;10.662;2024-03-29T12:50:36;95471.06;;;13.86;73.05
72677;BME280;60755;51.374;10.662;2024-03-29T12:53:07;95477.97;;;13.73;74.45
72677;BME280;60755;51.374;10.662;2024-03-29T12:55:35;95471.44;;;13.93;72.50
72677;BME280;60755;51.374;10.662;2024-03-29T12:58:06;95472.69;;;13.95;73.82
72677;BME280;60755;51.374;10.662;2024-03-29T13:00:37;95457.56;;;13.87;74.91
72677;BME280;60755;51.374;10.662;2024-03-29T13:03:04;95451.94;;;14.03;73.71